Glennville, Georgia
Current Conditions -  °F | °C
As of 4:15 PM on Monday 24 Nov 2014 (Local Time) from KCWV Reporting Station
Thunderstorm Thunderstorm  
Wind Chill: 64°   Ceiling: 7000
Heat Index: 64°   Visibility: 7mi
Dew Point: 64°   Wind: 5mph
Humidity: 100%   Direction: 190°S
Pressure: 29.88"   Gusts: NA
Location:  31.94°N, 81.93°W
Report Text: KCWV 242115Z AUTO 19004KT 7SM -TSRA SCT028 SCT042 OVC070 18/18 A2988 RMK AO2 LTG DSNT NE AND SW
Loading
Personal Weather Stations






























Interactive Weather Map New forecast layout! Learn more

10-Day Weather Forecast

Advertisements
Track Severe Weather on mobile